Bonaparte, IA (52620)

10:14 PM CDT am 28. August 2014 (GMT -0500)
KIADONNE3 | Change Station
CLOSE
Current Station
Persönliche Wetterstationen
Location: Donnellson, IA
Höhe: 700 ft
Wetterstationen in der Umgebung

Höhe 700 ft 40.63 °N, 91.60 °W | Updated 3 seconds ago

Teils Wolkig
Teils Wolkig
70.3 °F
gefühlte 70.3 °F
N
2.9
Wind Wechselnd Wind aus Ost
Gusts 4.9 mph

Heute
Max. -- | schwach -- °F
--% Regenrisiko
Gestern
Max. -- | schwach -- °F
Precip. -- inch
6:30 AM 7:45 PM
Erstes Viertel, 11% visible
Druck 29.97 inch
Sichtweite 10.0 Meilen
Wolken Teils Wolkig 12000 ft
Taupunkt 70 °F
Feuchtigkeit 98%
Regen 1.39 inch
Schneehöhe Nicht verfügbar..
UV 0 von 12
Pollen 5.30 von 12
Luftqualität Nicht verfügbar..
Flu Activity Nicht verfügbar..
METAR KMPZ 290255Z AUTO 12007KT 10SM SCT120 21/21 A2997 RMK AO2 T02130206

More Conditions Fewer Conditions

Druck 29.97 inch
Sichtweite 10.0 Meilen
Wolken Teils Wolkig 12000 ft
Taupunkt 70 °F
Feuchtigkeit 98%
Regen 1.39 inch
Schneehöhe Nicht verfügbar..
UV 0 von 12
Pollen 5.30 von 12
Luftqualität Nicht verfügbar..
Flu Activity Nicht verfügbar..
METAR KMPZ 290255Z AUTO 12007KT 10SM SCT120 21/21 A2997 RMK AO2 T02130206

More Conditions Fewer Conditions

10-Day Weather Forecast

Almanac

Astronomie

Aug. 28, 2014 Aufgang Untergang
Genaue Zeit 06:30 CDT 19:45 CDT
Bürgerliche Dämmerung 06:01 CDT 20:13 CDT
Nautische Dämmerung 05:27 CDT 20:47 CDT
Astronomische Dämmerung 04:52 CDT 21:23 CDT
Mond 09:24 CDT (8/28) 21:08 CDT (8/28)
Länge des sichtbaren Lichts 14h 12m
Tageslänge
13h 15m
Tomorrow will be 2m 34s shorter.
Erstes Viertel, 11% of the Moon is Illuminated
Heute
Erstes Viertel
Sept 2
Erstes Viertel
Sept 8
Vollmond
Sept 15
Letztes Viertel
Sept 24
Neu

Heutige Rekorde

State Highs State Lows

Community

WunderPhotos

Upload Photos

1,748,146 Fotos hochgeladen!

Nearby

Schneehöhe

Station Depth Höhe
Kein Neuschnee gemeldet.

Erdbebenaktivität

Stadt Distance Mag. Time & Date
No recent earthquake activity has been reported nearby.
Minimum magnitude displayed is 2.5.

küstennahe Wassertemperaturen

Ort Temperatur
Kein Stationsbericht

Wetterstationen in der Umgebung